Butler, Oklahoma
Current Conditions -  °F | °C
As of 8:15 AM on Thursday 29 Jan 2015 (Local Time) from KCLK Reporting Station
Clear Clear  
Wind Chill: 37°   Ceiling: Unl
Heat Index: 45°   Visibility: 10mi
Dew Point: 32°   Wind: 16mph
Humidity: 61%   Direction: 350°N
Pressure: 30.36"   Gusts: NA
Location:  35.64°N, 99.19°W
Report Text: KCLK 291415Z AUTO 35014KT 10SM CLR 07/00 A3036 RMK AO2
Loading
Personal Weather Stations






























Interactive Weather Map New forecast layout! Learn more

10-Day Weather Forecast

Advertisements
Track Severe Weather on mobile